Time;durP1;ratioP1;P1;durP2;ratioP2;P2;SDS_P1;SDS_P2;PMS_P1;PMS_P2;Temp;Humidity;BMP_temperature;BMP_pressure;BME280_temperature;BME280_humidity;BME280_pressure;Samples;Min_cycle;Max_cycle;Signal;HPM_P1;HPM_P2
2023/06/20 00:00:10;;;;;;;;;;;17.50;95.20;;;;;;4981294;28;20398;-74
2023/06/20 00:02:38;;;;;;;;;;;17.50;95.40;;;;;;4980441;28;19989;-74
2023/06/20 00:05:05;;;;;;;;;;;17.50;95.60;;;;;;4978343;28;20004;-74
2023/06/20 00:07:32;;;;;;;;;;;17.50;95.40;;;;;;4980086;28;19929;-74
2023/06/20 00:09:59;;;;;;;;;;;17.40;95.10;;;;;;4974175;28;19973;-74
2023/06/20 00:12:26;;;;;;;;;;;17.40;95.00;;;;;;4977661;28;19929;-74
2023/06/20 00:14:52;;;;;;;;;;;17.40;95.30;;;;;;4980253;28;20038;-74
2023/06/20 00:17:19;;;;;;;;;;;17.40;95.90;;;;;;4980542;28;20333;-74
2023/06/20 00:19:46;;;;;;;;;;;17.40;95.90;;;;;;4978934;28;19934;-75
2023/06/20 00:22:13;;;;;;;;;;;17.40;96.10;;;;;;4977728;28;20293;-79
2023/06/20 00:24:39;;;;;;;;;;;17.30;95.70;;;;;;4975132;28;20060;-79
2023/06/20 00:27:06;;;;;;;;;;;17.30;95.60;;;;;;4980555;28;20338;-79
2023/06/20 00:29:33;;;;;;;;;;;17.30;95.30;;;;;;4982254;28;19933;-79
2023/06/20 00:32:00;;;;;;;;;;;17.20;95.50;;;;;;4976289;28;20309;-80
2023/06/20 00:34:27;;;;;;;;;;;17.30;95.80;;;;;;4982842;28;19930;-79
2023/06/20 00:36:54;;;;;;;;;;;17.30;95.70;;;;;;4983575;28;19962;-78
2023/06/20 00:39:20;;;;;;;;;;;17.20;95.70;;;;;;4986301;28;20425;-79
2023/06/20 00:41:47;;;;;;;;;;;17.30;95.90;;;;;;4980449;28;20577;-80
2023/06/20 00:44:14;;;;;;;;;;;17.20;95.90;;;;;;4980913;28;19929;-78
2023/06/20 00:46:41;;;;;;;;;;;17.20;96.20;;;;;;4982411;28;20502;-80
2023/06/20 00:49:09;;;;;;;;;;;17.20;96.30;;;;;;4974851;28;20805;-79
2023/06/20 00:51:37;;;;;;;;;;;17.20;97.00;;;;;;4977473;28;20361;-78
2023/06/20 00:54:04;;;;;;;;;;;17.30;97.10;;;;;;4981848;28;19933;-79
2023/06/20 00:56:31;;;;;;;;;;;17.30;97.20;;;;;;4974880;28;19937;-79
2023/06/20 00:58:57;;;;;;;;;;;17.30;97.10;;;;;;4982879;28;19929;-79
2023/06/20 01:01:25;;;;;;;;;;;17.20;96.90;;;;;;4983818;28;19965;-79
2023/06/20 01:03:52;;;;;;;;;;;17.20;96.60;;;;;;4975888;28;19929;-79
2023/06/20 01:06:27;;;;;;;;;;;17.20;96.60;;;;;;4979668;28;20287;-79
2023/06/20 01:09:03;;;;;;;;;;;17.20;96.70;;;;;;4970312;28;19969;-79
2023/06/20 01:11:49;;;;;;;;;;;17.20;96.50;;;;;;4975215;28;20264;-79
2023/06/20 01:14:36;;;;;;;;;;;17.10;96.30;;;;;;4983435;28;20453;-79
2023/06/20 01:17:05;;;;;;;;;;;17.10;96.70;;;;;;4984609;28;19964;-80
2023/06/20 01:19:38;;;;;;;;;;;17.10;96.70;;;;;;4977625;28;19936;-79
2023/06/20 01:22:07;;;;;;;;;;;17.10;96.60;;;;;;4981817;28;20306;-79
2023/06/20 01:24:50;;;;;;;;;;;17.00;96.70;;;;;;4979670;28;20352;-79
2023/06/20 01:27:24;;;;;;;;;;;17.00;96.90;;;;;;4983782;28;19929;-79
2023/06/20 01:30:09;;;;;;;;;;;17.00;97.30;;;;;;4980947;28;20387;-79
2023/06/20 01:32:38;;;;;;;;;;;17.00;97.50;;;;;;4978717;28;19967;-79
2023/06/20 01:35:08;;;;;;;;;;;16.90;97.20;;;;;;4982118;28;19936;-79
2023/06/20 01:37:37;;;;;;;;;;;16.90;97.00;;;;;;4978647;28;19934;-80
2023/06/20 01:40:05;;;;;;;;;;;16.90;97.20;;;;;;4980215;28;19985;-79
2023/06/20 01:42:33;;;;;;;;;;;16.90;96.90;;;;;;4983134;28;19936;-79
2023/06/20 01:45:02;;;;;;;;;;;16.80;96.50;;;;;;4983143;28;20028;-79
2023/06/20 01:47:30;;;;;;;;;;;16.70;96.50;;;;;;4976186;28;20272;-79
2023/06/20 01:49:57;;;;;;;;;;;16.70;96.50;;;;;;4975071;28;19934;-79
2023/06/20 01:52:25;;;;;;;;;;;16.70;96.60;;;;;;4982574;28;19930;-79
2023/06/20 01:54:52;;;;;;;;;;;16.70;96.70;;;;;;4979940;28;19973;-79
2023/06/20 01:57:19;;;;;;;;;;;16.70;97.10;;;;;;4980305;28;19930;-79
2023/06/20 01:59:46;;;;;;;;;;;16.60;97.20;;;;;;4974453;28;19977;-79
2023/06/20 02:02:13;;;;;;;;;;;16.60;97.30;;;;;;4975962;28;19937;-79
2023/06/20 02:04:40;;;;;;;;;;;16.60;97.30;;;;;;4983229;28;20071;-79
2023/06/20 02:07:09;;;;;;;;;;;16.60;97.30;;;;;;4980253;28;19930;-79
2023/06/20 02:09:36;;;;;;;;;;;16.60;97.40;;;;;;4975251;28;19961;-80
2023/06/20 02:12:04;;;;;;;;;;;16.50;97.00;;;;;;4978823;28;20306;-79
2023/06/20 02:14:31;;;;;;;;;;;16.40;96.80;;;;;;4975126;28;20350;-79
2023/06/20 02:17:00;;;;;;;;;;;16.30;96.10;;;;;;4972189;28;19933;-79
2023/06/20 02:19:27;;;;;;;;;;;16.30;96.30;;;;;;4976657;28;19934;-79
2023/06/20 02:21:55;;;;;;;;;;;16.30;96.40;;;;;;4975764;28;19942;-79
2023/06/20 02:24:22;;;;;;;;;;;16.30;96.30;;;;;;4974704;28;20355;-79
2023/06/20 02:26:51;;;;;;;;;;;16.20;96.30;;;;;;4980185;28;20275;-80
2023/06/20 02:29:19;;;;;;;;;;;16.20;96.50;;;;;;4980143;28;20029;-80
2023/06/20 02:31:48;;;;;;;;;;;16.20;97.10;;;;;;4975015;28;20365;-80
2023/06/20 02:34:17;;;;;;;;;;;16.20;97.60;;;;;;4977793;28;20379;-79
2023/06/20 02:36:45;;;;;;;;;;;16.20;97.70;;;;;;4980397;28;20044;-79
2023/06/20 02:39:11;;;;;;;;;;;16.10;97.40;;;;;;4979523;28;20020;-79
2023/06/20 02:41:41;;;;;;;;;;;16.10;97.20;;;;;;4981881;28;20304;-80
2023/06/20 02:44:09;;;;;;;;;;;16.10;97.20;;;;;;4978384;28;19980;-79
2023/06/20 02:46:39;;;;;;;;;;;16.10;97.60;;;;;;4973191;28;20213;-79
2023/06/20 02:49:11;;;;;;;;;;;16.10;97.60;;;;;;4979637;28;19965;-80
2023/06/20 02:51:45;;;;;;;;;;;16.00;97.50;;;;;;4980609;28;20004;-79
2023/06/20 02:54:24;;;;;;;;;;;16.00;97.80;;;;;;4976122;28;19955;-79
2023/06/20 02:56:55;;;;;;;;;;;16.00;97.70;;;;;;4974221;28;20296;-79
2023/06/20 02:59:23;;;;;;;;;;;16.00;98.00;;;;;;4976237;28;20527;-79
2023/06/20 03:01:55;;;;;;;;;;;16.00;98.20;;;;;;4980025;28;20430;-80
2023/06/20 03:04:23;;;;;;;;;;;16.00;98.50;;;;;;4995355;28;19930;-80
2023/06/20 03:06:51;;;;;;;;;;;16.00;98.70;;;;;;4971459;28;20335;-80
2023/06/20 03:09:19;;;;;;;;;;;16.00;98.10;;;;;;4981487;28;19938;-79
2023/06/20 03:11:46;;;;;;;;;;;16.00;98.20;;;;;;4978489;28;19933;-79
2023/06/20 03:14:13;;;;;;;;;;;16.00;98.40;;;;;;4971769;28;19949;-80
2023/06/20 03:16:42;;;;;;;;;;;16.00;98.10;;;;;;4973341;28;20390;-79
2023/06/20 03:19:12;;;;;;;;;;;16.00;98.10;;;;;;4980142;28;19977;-79
2023/06/20 03:21:39;;;;;;;;;;;15.90;98.30;;;;;;4979716;28;19930;-79
2023/06/20 03:24:06;;;;;;;;;;;15.90;98.50;;;;;;4979788;28;19929;-78
2023/06/20 03:26:42;;;;;;;;;;;16.00;98.50;;;;;;4980137;28;19963;-79
2023/06/20 03:29:09;;;;;;;;;;;16.00;98.30;;;;;;4979326;28;19930;-80
2023/06/20 03:31:36;;;;;;;;;;;16.00;98.10;;;;;;4981835;28;20278;-79
2023/06/20 03:34:02;;;;;;;;;;;15.90;98.30;;;;;;4982358;28;19933;-79
2023/06/20 03:36:29;;;;;;;;;;;15.90;97.80;;;;;;4973631;28;19929;-79
2023/06/20 03:38:56;;;;;;;;;;;15.90;97.50;;;;;;4979263;28;20592;-79
2023/06/20 03:41:23;;;;;;;;;;;15.90;97.90;;;;;;4982058;28;19962;-79
2023/06/20 03:43:49;;;;;;;;;;;15.90;98.00;;;;;;4981505;28;19968;-80
2023/06/20 03:46:16;;;;;;;;;;;16.00;98.20;;;;;;4971244;28;19933;-79
2023/06/20 03:48:43;;;;;;;;;;;15.90;97.80;;;;;;4979970;28;19930;-80
2023/06/20 03:51:10;;;;;;;;;;;16.00;97.80;;;;;;4971703;28;19929;-80
2023/06/20 03:53:36;;;;;;;;;;;16.00;97.80;;;;;;4969384;28;19941;-80
2023/06/20 03:56:03;;;;;;;;;;;15.90;97.40;;;;;;4972671;28;19930;-79
2023/06/20 03:58:30;;;;;;;;;;;15.90;97.50;;;;;;4979251;28;19965;-79
2023/06/20 04:00:56;;;;;;;;;;;15.90;97.90;;;;;;4978836;28;20421;-79
2023/06/20 04:03:23;;;;;;;;;;;16.00;98.10;;;;;;4981399;28;20320;-80
2023/06/20 04:05:51;;;;;;;;;;;16.00;98.00;;;;;;4979957;28;20169;-79
2023/06/20 04:08:18;;;;;;;;;;;16.00;98.00;;;;;;4976991;28;19952;-79
2023/06/20 04:10:44;;;;;;;;;;;16.00;97.80;;;;;;4980162;28;20013;-79
2023/06/20 04:13:11;;;;;;;;;;;16.10;98.10;;;;;;4978970;28;19980;-79
2023/06/20 04:15:38;;;;;;;;;;;16.10;98.40;;;;;;4970577;28;19930;-79
2023/06/20 04:18:04;;;;;;;;;;;16.10;98.30;;;;;;4979443;28;19977;-79
2023/06/20 04:20:31;;;;;;;;;;;16.20;98.60;;;;;;4976295;28;19980;-79
2023/06/20 04:22:58;;;;;;;;;;;16.20;98.60;;;;;;4978889;28;19938;-79
2023/06/20 04:25:25;;;;;;;;;;;16.20;98.60;;;;;;4976132;28;19930;-79
2023/06/20 04:27:55;;;;;;;;;;;16.30;98.40;;;;;;4991672;28;20445;-79
2023/06/20 04:30:22;;;;;;;;;;;16.30;98.50;;;;;;4977080;28;19931;-81
2023/06/20 04:32:53;;;;;;;;;;;16.30;98.50;;;;;;4973327;28;20010;-79
2023/06/20 04:35:20;;;;;;;;;;;16.40;98.60;;;;;;4971635;28;19976;-79
2023/06/20 04:37:51;;;;;;;;;;;16.40;98.50;;;;;;4978612;28;19934;-80
2023/06/20 04:40:18;;;;;;;;;;;16.50;98.50;;;;;;4961678;28;20019;-80
2023/06/20 04:42:45;;;;;;;;;;;16.50;98.70;;;;;;4986440;28;20374;-80
2023/06/20 04:45:12;;;;;;;;;;;16.60;98.70;;;;;;4970964;28;19985;-81
2023/06/20 04:47:39;;;;;;;;;;;16.60;98.70;;;;;;4978749;28;20390;-80
2023/06/20 04:50:07;;;;;;;;;;;16.70;98.70;;;;;;4981051;28;20319;-80
2023/06/20 04:52:33;;;;;;;;;;;16.70;98.60;;;;;;4979869;28;20565;-83
2023/06/20 04:55:03;;;;;;;;;;;16.80;98.40;;;;;;4984086;28;19929;-78
2023/06/20 04:57:30;;;;;;;;;;;16.90;98.60;;;;;;4978237;28;20021;-83
2023/06/20 04:59:57;;;;;;;;;;;16.90;98.50;;;;;;4977184;28;20397;-82
2023/06/20 05:02:24;;;;;;;;;;;17.00;98.30;;;;;;4973085;28;20152;-81
2023/06/20 05:04:51;;;;;;;;;;;17.10;97.80;;;;;;4978026;28;20040;-81
2023/06/20 05:07:18;;;;;;;;;;;17.10;98.00;;;;;;4978756;28;19930;-81
2023/06/20 05:09:45;;;;;;;;;;;17.20;97.80;;;;;;4981271;28;20453;-81
2023/06/20 05:12:12;;;;;;;;;;;17.30;97.60;;;;;;4972088;28;20032;-79
2023/06/20 05:14:39;;;;;;;;;;;17.40;97.20;;;;;;4979672;28;19941;-80
2023/06/20 05:17:05;;;;;;;;;;;17.40;97.20;;;;;;4981177;28;19929;-84
2023/06/20 05:19:33;;;;;;;;;;;17.50;97.40;;;;;;4975368;28;19930;-81
2023/06/20 05:22:00;;;;;;;;;;;17.60;97.50;;;;;;4981017;28;20275;-78
2023/06/20 05:24:26;;;;;;;;;;;17.70;97.00;;;;;;4972967;28;19973;-78
2023/06/20 05:26:53;;;;;;;;;;;17.80;96.50;;;;;;4973823;28;19938;-81
2023/06/20 05:29:20;;;;;;;;;;;17.90;96.70;;;;;;4976998;28;20553;-82
2023/06/20 05:31:47;;;;;;;;;;;17.90;96.80;;;;;;4974825;28;20064;-81
2023/06/20 05:34:13;;;;;;;;;;;18.00;96.40;;;;;;4975009;28;20024;-81
2023/06/20 05:36:46;;;;;;;;;;;18.10;96.20;;;;;;4975367;28;19930;-81
2023/06/20 05:39:13;;;;;;;;;;;18.20;95.10;;;;;;4972966;28;20925;-85
2023/06/20 05:41:42;;;;;;;;;;;18.30;95.10;;;;;;4972290;28;20364;-83
2023/06/20 05:44:08;;;;;;;;;;;18.40;94.40;;;;;;4988449;28;19937;-82
2023/06/20 05:46:35;;;;;;;;;;;18.40;93.80;;;;;;4974587;28;20039;-82
2023/06/20 05:49:03;;;;;;;;;;;18.50;93.70;;;;;;4975958;28;19934;-82
2023/06/20 05:51:30;;;;;;;;;;;18.60;93.30;;;;;;4976763;28;19981;-82
2023/06/20 05:53:57;;;;;;;;;;;18.70;93.30;;;;;;4973761;28;20401;-82
2023/06/20 05:56:24;;;;;;;;;;;18.80;92.90;;;;;;4976613;28;19930;-82
2023/06/20 05:58:51;;;;;;;;;;;18.90;91.20;;;;;;4977268;28;20053;-83
2023/06/20 06:01:18;;;;;;;;;;;19.00;91.30;;;;;;4976952;28;20036;-82
2023/06/20 06:03:47;;;;;;;;;;;19.20;90.60;;;;;;4982524;28;19936;-82
2023/06/20 06:06:15;;;;;;;;;;;19.30;88.90;;;;;;4975520;28;19970;-82
2023/06/20 06:08:41;;;;;;;;;;;19.40;89.20;;;;;;4987268;28;19992;-82
2023/06/20 06:11:09;;;;;;;;;;;19.50;87.20;;;;;;4975521;28;19934;-82
2023/06/20 06:13:38;;;;;;;;;;;19.70;87.80;;;;;;4989463;28;19934;-82
2023/06/20 06:16:05;;;;;;;;;;;19.80;86.80;;;;;;4976359;28;19929;-82
2023/06/20 06:18:32;;;;;;;;;;;19.90;85.80;;;;;;4980233;28;20450;-82
2023/06/20 06:20:59;;;;;;;;;;;20.10;85.00;;;;;;4988987;28;20088;-82
2023/06/20 06:23:26;;;;;;;;;;;20.20;83.60;;;;;;4991811;28;20355;-82
2023/06/20 06:25:53;;;;;;;;;;;20.30;83.50;;;;;;4987831;28;19926;-82
2023/06/20 06:28:21;;;;;;;;;;;20.40;83.50;;;;;;4989150;28;19929;-82
2023/06/20 06:30:48;;;;;;;;;;;20.60;83.80;;;;;;4987498;28;20061;-82
2023/06/20 06:33:15;;;;;;;;;;;20.70;81.30;;;;;;4987637;28;19934;-82
2023/06/20 06:35:41;;;;;;;;;;;20.90;81.00;;;;;;4990482;28;20783;-82
2023/06/20 06:38:08;;;;;;;;;;;21.00;80.60;;;;;;4986008;28;19934;-82
2023/06/20 06:40:36;;;;;;;;;;;21.10;80.70;;;;;;4986607;28;20928;-82
2023/06/20 06:43:02;;;;;;;;;;;21.40;80.80;;;;;;4984037;28;19969;-81
2023/06/20 06:45:29;;;;;;;;;;;21.60;79.40;;;;;;4994400;28;19934;-82
2023/06/20 06:47:56;;;;;;;;;;;21.90;79.30;;;;;;4988245;28;20370;-82
2023/06/20 06:50:23;;;;;;;;;;;22.00;77.90;;;;;;4978952;28;19929;-82
2023/06/20 06:52:49;;;;;;;;;;;22.30;77.60;;;;;;5002502;28;19977;-82
2023/06/20 06:57:44;;;;;;;;;;;22.90;75.40;;;;;;4993033;28;19980;-75
2023/06/20 07:00:14;;;;;;;;;;;23.00;74.70;;;;;;4994103;28;20191;-75
2023/06/20 07:02:41;;;;;;;;;;;23.20;74.20;;;;;;4994443;28;19959;-75
2023/06/20 07:05:09;;;;;;;;;;;23.30;72.80;;;;;;4978467;28;19999;-75
2023/06/20 07:07:36;;;;;;;;;;;23.30;73.40;;;;;;4995808;28;19940;-75
2023/06/20 07:10:03;;;;;;;;;;;23.50;72.70;;;;;;4977774;28;20031;-75
2023/06/20 07:12:30;;;;;;;;;;;23.60;73.00;;;;;;4992802;28;20010;-75
2023/06/20 07:14:56;;;;;;;;;;;23.70;71.80;;;;;;4977396;28;20420;-75
2023/06/20 07:17:23;;;;;;;;;;;23.90;73.50;;;;;;5001692;28;19930;-75
2023/06/20 07:19:51;;;;;;;;;;;24.10;72.00;;;;;;4977485;28;20356;-75
2023/06/20 07:22:18;;;;;;;;;;;24.10;69.60;;;;;;4995361;28;19961;-75
2023/06/20 07:24:45;;;;;;;;;;;24.20;69.30;;;;;;4995346;28;20197;-75
2023/06/20 07:27:16;;;;;;;;;;;24.00;69.50;;;;;;4978977;28;20060;-76
2023/06/20 07:29:43;;;;;;;;;;;24.30;70.30;;;;;;5001230;28;20390;-75
2023/06/20 07:32:10;;;;;;;;;;;24.50;68.00;;;;;;5000567;28;20265;-76
2023/06/20 07:34:37;;;;;;;;;;;24.30;68.70;;;;;;4994025;28;19940;-75
2023/06/20 07:37:04;;;;;;;;;;;24.50;68.80;;;;;;5002943;28;19929;-75
2023/06/20 07:39:31;;;;;;;;;;;24.80;67.80;;;;;;4991047;28;20397;-75
2023/06/20 07:41:58;;;;;;;;;;;25.00;67.70;;;;;;4997347;28;19976;-75
2023/06/20 07:44:24;;;;;;;;;;;25.20;66.30;;;;;;4978782;28;20037;-76
2023/06/20 07:46:51;;;;;;;;;;;25.40;66.00;;;;;;4997604;28;19937;-76
2023/06/20 07:49:18;;;;;;;;;;;25.90;67.10;;;;;;5000701;28;19929;-76
2023/06/20 07:51:46;;;;;;;;;;;26.20;64.50;;;;;;4998761;28;19936;-76
2023/06/20 07:54:14;;;;;;;;;;;26.40;63.70;;;;;;4998673;28;19929;-76
2023/06/20 07:56:41;;;;;;;;;;;26.50;61.90;;;;;;4998761;28;20108;-75
2023/06/20 07:59:07;;;;;;;;;;;26.60;63.60;;;;;;4971945;28;19930;-76
2023/06/20 08:01:34;;;;;;;;;;;26.90;62.30;;;;;;4998892;28;19936;-76
2023/06/20 08:04:01;;;;;;;;;;;27.10;61.50;;;;;;4994367;28;20003;-75
2023/06/20 08:06:28;;;;;;;;;;;27.10;60.90;;;;;;4996521;28;19933;-75
2023/06/20 08:08:55;;;;;;;;;;;27.00;59.00;;;;;;4978427;28;20394;-76
2023/06/20 08:11:22;;;;;;;;;;;26.50;59.90;;;;;;4994924;28;20083;-76
2023/06/20 08:13:49;;;;;;;;;;;26.70;59.80;;;;;;4975914;28;20350;-76
2023/06/20 08:16:17;;;;;;;;;;;27.00;60.40;;;;;;4992953;28;19972;-76
2023/06/20 08:18:43;;;;;;;;;;;27.30;59.30;;;;;;4976770;28;20285;-76
2023/06/20 08:21:10;;;;;;;;;;;27.50;59.50;;;;;;4994751;28;20287;-76
2023/06/20 08:23:37;;;;;;;;;;;27.90;59.10;;;;;;4975670;28;20382;-76
2023/06/20 08:26:04;;;;;;;;;;;28.10;57.80;;;;;;5000518;28;19955;-76
2023/06/20 08:28:30;;;;;;;;;;;28.30;56.60;;;;;;4991064;28;20031;-76
2023/06/20 08:30:57;;;;;;;;;;;28.30;55.70;;;;;;4999511;28;19929;-76
2023/06/20 08:33:24;;;;;;;;;;;27.70;57.10;;;;;;4991042;28;19930;-76
2023/06/20 08:35:51;;;;;;;;;;;27.80;57.10;;;;;;4986215;28;20379;-76
2023/06/20 08:38:17;;;;;;;;;;;28.10;56.70;;;;;;4994890;28;20159;-76
2023/06/20 08:40:45;;;;;;;;;;;28.20;57.30;;;;;;4993291;28;19933;-76
2023/06/20 08:43:13;;;;;;;;;;;28.20;56.50;;;;;;4972655;28;19933;-76
2023/06/20 08:45:39;;;;;;;;;;;28.30;57.10;;;;;;4976866;28;19933;-76
2023/06/20 08:48:06;;;;;;;;;;;28.40;56.30;;;;;;4972174;28;19961;-76
2023/06/20 08:50:33;;;;;;;;;;;28.30;54.90;;;;;;4993737;28;20158;-76
2023/06/20 08:53:00;;;;;;;;;;;28.30;55.90;;;;;;4991420;28;19934;-77
2023/06/20 08:55:28;;;;;;;;;;;28.50;55.50;;;;;;5005788;28;19987;-77
2023/06/20 08:57:56;;;;;;;;;;;28.40;54.20;;;;;;4997242;28;20349;-76
2023/06/20 09:00:23;;;;;;;;;;;28.10;55.30;;;;;;4997398;28;19951;-76
2023/06/20 09:02:51;;;;;;;;;;;28.10;55.40;;;;;;4980897;28;19933;-76
2023/06/20 09:05:19;;;;;;;;;;;28.10;55.50;;;;;;4980206;28;20412;-76
2023/06/20 09:07:45;;;;;;;;;;;28.50;55.20;;;;;;4998114;28;20570;-76
2023/06/20 09:10:16;;;;;;;;;;;28.90;54.50;;;;;;4993132;28;20536;-76
2023/06/20 09:12:50;;;;;;;;;;;28.90;53.80;;;;;;4997740;28;19937;-76
2023/06/20 09:15:20;;;;;;;;;;;29.00;52.90;;;;;;4997670;28;20027;-76
2023/06/20 09:17:51;;;;;;;;;;;28.90;52.60;;;;;;4996056;28;19940;-76
2023/06/20 09:20:19;;;;;;;;;;;28.70;52.80;;;;;;4997285;28;19934;-76
2023/06/20 09:22:46;;;;;;;;;;;28.50;53.40;;;;;;4998158;28;19933;-76
2023/06/20 09:25:18;;;;;;;;;;;28.50;53.70;;;;;;4995761;28;20028;-76
2023/06/20 09:27:45;;;;;;;;;;;28.60;54.50;;;;;;4980340;28;19934;-76
2023/06/20 09:30:11;;;;;;;;;;;28.70;54.30;;;;;;4979984;28;19936;-76
2023/06/20 09:32:42;;;;;;;;;;;28.60;53.90;;;;;;4997563;28;19986;-76
2023/06/20 09:35:10;;;;;;;;;;;28.80;54.10;;;;;;4996792;28;20031;-76
2023/06/20 09:37:37;;;;;;;;;;;29.10;53.50;;;;;;4978591;28;20003;-76
2023/06/20 09:40:11;;;;;;;;;;;29.30;53.40;;;;;;4979023;28;19940;-76
2023/06/20 09:42:39;;;;;;;;;;;29.40;51.50;;;;;;4980710;28;19944;-76
2023/06/20 09:45:07;;;;;;;;;;;29.20;52.30;;;;;;5003016;28;19952;-76
2023/06/20 09:47:35;;;;;;;;;;;29.20;52.30;;;;;;4995986;28;19929;-76
2023/06/20 09:50:10;;;;;;;;;;;29.20;52.80;;;;;;4997440;28;19936;-76
2023/06/20 09:52:46;;;;;;;;;;;29.20;53.70;;;;;;4982316;28;19933;-78
2023/06/20 09:55:14;;;;;;;;;;;29.00;52.90;;;;;;4981033;28;19933;-76
2023/06/20 09:57:42;;;;;;;;;;;29.20;53.50;;;;;;4961112;28;19976;-77
2023/06/20 10:00:12;;;;;;;;;;;29.30;53.30;;;;;;4978884;28;21123;-74
2023/06/20 10:06:02;;;;;;;;;;;29.30;52.20;;;;;;4995784;23;19936;-83
2023/06/20 10:08:29;;;;;;;;;;;29.30;53.20;;;;;;4990551;28;19975;-84
2023/06/20 10:10:56;;;;;;;;;;;29.30;53.20;;;;;;4983752;28;19981;-83
2023/06/20 10:13:24;;;;;;;;;;;28.90;52.60;;;;;;4990603;28;19933;-83
2023/06/20 10:19:19;;;;;;;;;;;28.40;52.80;;;;;;5006521;23;20007;-76
2023/06/20 10:21:58;;;;;;;;;;;28.40;53.60;;;;;;5002769;28;19940;-76
2023/06/20 10:24:27;;;;;;;;;;;28.20;53.40;;;;;;5000352;28;19933;-76
2023/06/20 10:26:54;;;;;;;;;;;28.20;54.30;;;;;;5001680;28;19929;-76
2023/06/20 10:29:22;;;;;;;;;;;28.20;53.50;;;;;;5004378;28;19967;-77
2023/06/20 10:32:12;;;;;;;;;;;28.20;54.90;;;;;;4983266;28;19930;-76
2023/06/20 10:34:39;;;;;;;;;;;28.20;54.80;;;;;;4985074;28;19981;-76
2023/06/20 10:37:16;;;;;;;;;;;28.30;54.80;;;;;;5000486;28;19949;-76
2023/06/20 10:39:53;;;;;;;;;;;28.10;54.30;;;;;;5001759;28;20528;-76
2023/06/20 10:42:34;;;;;;;;;;;28.60;56.30;;;;;;5001405;28;20437;-76
2023/06/20 10:45:20;;;;;;;;;;;28.80;55.00;;;;;;4999716;28;19967;-76
2023/06/20 10:47:47;;;;;;;;;;;29.20;55.00;;;;;;5004330;28;20363;-77
2023/06/20 10:50:14;;;;;;;;;;;29.60;53.50;;;;;;4986350;28;20741;-77
2023/06/20 10:52:41;;;;;;;;;;;29.90;53.20;;;;;;4991279;28;20019;-75
2023/06/20 10:55:09;;;;;;;;;;;30.00;51.50;;;;;;5001424;28;19933;-75
2023/06/20 10:57:36;;;;;;;;;;;30.10;51.90;;;;;;4996771;28;19940;-74
2023/06/20 11:00:12;;;;;;;;;;;30.10;51.60;;;;;;5000467;28;20240;-75
2023/06/20 11:02:39;;;;;;;;;;;29.80;51.50;;;;;;5000551;28;19937;-75
2023/06/20 11:05:07;;;;;;;;;;;29.60;51.50;;;;;;4983582;28;19938;-79
2023/06/20 11:07:34;;;;;;;;;;;29.50;51.80;;;;;;4997452;28;19988;-78
2023/06/20 11:10:17;;;;;;;;;;;29.60;53.30;;;;;;5000707;28;20056;-78
2023/06/20 11:12:44;;;;;;;;;;;29.30;51.60;;;;;;4997691;28;19939;-78
2023/06/20 11:15:38;;;;;;;;;;;29.30;51.90;;;;;;5003238;28;19973;-79
2023/06/20 11:18:06;;;;;;;;;;;28.90;52.90;;;;;;5003408;28;19929;-76
2023/06/20 11:20:39;;;;;;;;;;;29.10;52.90;;;;;;5000572;28;19933;-76
2023/06/20 11:23:12;;;;;;;;;;;29.20;53.20;;;;;;4999996;28;19980;-75
2023/06/20 11:25:41;;;;;;;;;;;29.10;52.80;;;;;;5000392;28;20409;-76
2023/06/20 11:28:09;;;;;;;;;;;29.10;52.70;;;;;;5000657;28;20361;-76
2023/06/20 11:30:40;;;;;;;;;;;28.90;52.50;;;;;;4999437;28;20596;-76
2023/06/20 11:33:11;;;;;;;;;;;28.80;53.00;;;;;;4999402;28;19941;-76
2023/06/20 11:35:41;;;;;;;;;;;28.80;53.70;;;;;;4998581;28;19987;-76
2023/06/20 11:38:13;;;;;;;;;;;28.80;53.10;;;;;;4991671;28;20011;-77
2023/06/20 11:40:41;;;;;;;;;;;28.80;54.50;;;;;;4987253;28;19929;-74
2023/06/20 11:43:17;;;;;;;;;;;28.70;53.30;;;;;;4984399;28;19991;-76
2023/06/20 11:45:44;;;;;;;;;;;28.50;54.60;;;;;;4997281;28;20757;-76
2023/06/20 11:48:11;;;;;;;;;;;28.20;54.60;;;;;;4998486;28;19939;-76
2023/06/20 11:50:41;;;;;;;;;;;28.10;54.20;;;;;;4998337;28;19976;-76
2023/06/20 11:53:17;;;;;;;;;;;28.00;55.80;;;;;;4999159;28;20020;-76
2023/06/20 11:55:48;;;;;;;;;;;27.90;55.10;;;;;;4992907;28;20031;-76
2023/06/20 11:58:16;;;;;;;;;;;27.70;56.20;;;;;;4976909;28;20457;-76
2023/06/20 12:00:47;;;;;;;;;;;27.60;56.60;;;;;;4999480;28;19936;-76
2023/06/20 12:03:15;;;;;;;;;;;27.60;56.40;;;;;;4998927;28;20564;-76
2023/06/20 12:05:42;;;;;;;;;;;27.50;58.30;;;;;;4998549;28;19935;-76
2023/06/20 12:08:08;;;;;;;;;;;27.50;57.70;;;;;;4997079;28;19936;-76
2023/06/20 12:10:56;;;;;;;;;;;27.50;57.50;;;;;;4997490;28;20193;-76
2023/06/20 12:13:22;;;;;;;;;;;27.50;57.90;;;;;;4997258;28;20356;-76
2023/06/20 12:15:49;;;;;;;;;;;27.40;58.20;;;;;;4997582;28;20028;-76
2023/06/20 12:18:17;;;;;;;;;;;27.30;57.00;;;;;;4997911;28;20469;-76
2023/06/20 12:20:47;;;;;;;;;;;27.10;56.90;;;;;;4998900;28;19933;-76
2023/06/20 12:23:20;;;;;;;;;;;27.10;59.20;;;;;;4996990;28;20189;-76
2023/06/20 12:25:47;;;;;;;;;;;27.00;58.40;;;;;;5008494;28;19929;-76
2023/06/20 12:28:14;;;;;;;;;;;26.90;56.40;;;;;;5000406;28;20376;-76
2023/06/20 12:30:41;;;;;;;;;;;26.80;57.00;;;;;;4980294;28;19933;-76
2023/06/20 12:33:09;;;;;;;;;;;26.70;57.40;;;;;;5002932;28;20314;-76
2023/06/20 12:35:36;;;;;;;;;;;26.70;57.10;;;;;;5000718;28;20249;-76
2023/06/20 12:38:03;;;;;;;;;;;26.70;57.70;;;;;;5002092;28;20301;-76
2023/06/20 12:40:29;;;;;;;;;;;26.70;58.80;;;;;;5002664;28;19929;-75
2023/06/20 12:42:56;;;;;;;;;;;26.80;58.40;;;;;;5002441;28;20443;-75
2023/06/20 12:45:23;;;;;;;;;;;26.90;58.90;;;;;;4996379;28;19997;-75
2023/06/20 12:47:50;;;;;;;;;;;27.00;58.20;;;;;;5001350;28;19965;-75
2023/06/20 12:50:17;;;;;;;;;;;27.10;58.30;;;;;;4993994;28;20358;-75
2023/06/20 12:52:44;;;;;;;;;;;27.30;57.90;;;;;;5002453;28;19933;-75
2023/06/20 12:55:10;;;;;;;;;;;27.50;58.30;;;;;;4984052;28;20349;-74
2023/06/20 12:57:37;;;;;;;;;;;27.60;57.40;;;;;;5001356;28;19934;-74
2023/06/20 13:00:05;;;;;;;;;;;27.70;57.00;;;;;;5000873;28;21020;-74
2023/06/20 13:02:33;;;;;;;;;;;27.90;58.30;;;;;;4996343;28;20379;-74
2023/06/20 13:05:01;;;;;;;;;;;28.10;57.80;;;;;;5000838;28;19973;-74
2023/06/20 13:07:27;;;;;;;;;;;28.30;58.50;;;;;;5001689;28;19933;-74
2023/06/20 13:09:54;;;;;;;;;;;28.50;57.10;;;;;;5001996;28;20024;-73
2023/06/20 13:12:22;;;;;;;;;;;28.60;55.20;;;;;;5000566;28;19940;-74
2023/06/20 13:14:50;;;;;;;;;;;28.60;54.90;;;;;;5002351;28;19937;-74
2023/06/20 13:17:23;;;;;;;;;;;28.70;55.90;;;;;;4998433;28;19933;-74
2023/06/20 13:19:50;;;;;;;;;;;28.80;55.80;;;;;;5000663;28;20018;-74
2023/06/20 13:22:17;;;;;;;;;;;29.00;55.20;;;;;;5002279;28;19933;-74
2023/06/20 13:24:44;;;;;;;;;;;29.10;55.10;;;;;;4995603;28;20430;-73
2023/06/20 13:27:14;;;;;;;;;;;29.30;54.50;;;;;;5001737;28;20053;-74
2023/06/20 13:29:41;;;;;;;;;;;29.40;56.30;;;;;;5001203;28;20029;-74
2023/06/20 13:32:08;;;;;;;;;;;29.70;54.70;;;;;;4998956;28;19973;-74
2023/06/20 13:34:34;;;;;;;;;;;29.90;53.70;;;;;;5000466;28;20587;-73
2023/06/20 13:37:01;;;;;;;;;;;29.90;53.40;;;;;;5000264;28;19940;-73
2023/06/20 13:39:28;;;;;;;;;;;29.50;52.60;;;;;;4999877;28;20016;-73
2023/06/20 13:41:58;;;;;;;;;;;29.50;53.10;;;;;;5001744;28;19945;-73
2023/06/20 13:44:25;;;;;;;;;;;29.60;54.20;;;;;;4978256;28;20028;-73
2023/06/20 13:46:52;;;;;;;;;;;29.60;53.80;;;;;;5001232;28;19940;-73
2023/06/20 13:49:19;;;;;;;;;;;29.70;53.10;;;;;;5000019;28;20299;-74
2023/06/20 13:51:45;;;;;;;;;;;29.60;53.80;;;;;;5001135;28;19936;-73
2023/06/20 13:54:12;;;;;;;;;;;29.90;52.90;;;;;;5000657;28;20630;-74
2023/06/20 13:56:39;;;;;;;;;;;30.00;52.70;;;;;;4983354;28;19955;-74
2023/06/20 13:59:06;;;;;;;;;;;30.20;51.60;;;;;;5001201;28;19929;-74
2023/06/20 14:01:34;;;;;;;;;;;30.20;52.00;;;;;;4999076;28;20450;-74
2023/06/20 14:04:01;;;;;;;;;;;30.10;51.90;;;;;;5001977;28;19975;-73
2023/06/20 14:06:28;;;;;;;;;;;30.30;53.30;;;;;;5001130;28;20381;-74
2023/06/20 14:08:55;;;;;;;;;;;30.60;53.00;;;;;;5000459;28;20008;-73
2023/06/20 14:11:22;;;;;;;;;;;30.60;51.10;;;;;;4998503;28;19929;-73
2023/06/20 14:13:49;;;;;;;;;;;30.30;51.20;;;;;;4985520;28;19933;-73
2023/06/20 14:16:16;;;;;;;;;;;30.00;50.60;;;;;;4983047;28;19997;-73
2023/06/20 14:18:42;;;;;;;;;;;29.80;51.30;;;;;;4984415;28;20378;-73
2023/06/20 14:21:09;;;;;;;;;;;29.60;51.10;;;;;;5001369;28;19935;-74
2023/06/20 14:23:36;;;;;;;;;;;29.40;53.00;;;;;;4977372;28;19934;-74
2023/06/20 14:26:03;;;;;;;;;;;29.30;52.90;;;;;;4974938;28;20358;-74
2023/06/20 14:28:30;;;;;;;;;;;29.30;53.30;;;;;;4994785;28;20148;-74
2023/06/20 14:30:56;;;;;;;;;;;29.20;53.10;;;;;;4998194;28;20060;-73